Time;durP1;ratioP1;P1;durP2;ratioP2;P2;SDS_P1;SDS_P2;PMS_P1;PMS_P2;Temp;Humidity;BMP_temperature;BMP_pressure;BME280_temperature;BME280_humidity;BME280_pressure;Samples;Min_cycle;Max_cycle;Signal;HPM_P1;HPM_P2
2022/11/14 00:02:07;;;;;;;14.23;11.07;;;;;;;4.56;92.31;98708.94;5052985;27;102544;-72
2022/11/14 00:04:53;;;;;;;15.97;12.50;;;;;;;4.40;93.48;98714.06;5058892;27;103961;-73
2022/11/14 00:07:40;;;;;;;13.33;9.97;;;;;;;4.57;93.41;98710.66;5059321;27;103717;-72
2022/11/14 00:10:26;;;;;;;15.50;11.80;;;;;;;4.57;92.28;98703.66;5053826;27;104641;-72
2022/11/14 00:13:17;;;;;;;10.60;9.50;;;;;;;4.45;92.88;98704.25;5056956;27;102767;-72
2022/11/14 00:16:03;;;;;;;14.43;12.13;;;;;;;4.29;92.86;98702.41;5058627;27;103496;-72
2022/11/14 00:18:50;;;;;;;18.70;15.00;;;;;;;4.07;94.63;98708.63;5057697;27;103352;-72
2022/11/14 00:21:36;;;;;;;19.50;14.80;;;;;;;4.30;93.27;98704.09;5053968;27;103132;-72
2022/11/14 00:24:23;;;;;;;18.67;14.43;;;;;;;4.46;92.67;98702.47;5056680;27;102736;-72
2022/11/14 00:27:09;;;;;;;15.53;12.77;;;;;;;4.57;92.81;98702.81;5059054;27;103033;-72
2022/11/14 00:29:57;;;;;;;15.33;12.23;;;;;;;4.59;91.19;98711.41;5060340;27;104092;-72
2022/11/14 00:32:44;;;;;;;14.20;10.80;;;;;;;4.61;90.85;98704.34;5057753;27;103079;-72
2022/11/14 00:35:30;;;;;;;13.17;10.00;;;;;;;4.66;90.73;98702.34;5062244;27;102649;-72
2022/11/14 00:38:17;;;;;;;11.27;9.23;;;;;;;4.67;89.97;98696.19;5058727;27;102769;-73
2022/11/14 00:41:03;;;;;;;11.67;10.00;;;;;;;4.70;90.13;98693.44;5060642;27;103168;-72
2022/11/14 00:43:50;;;;;;;10.77;8.50;;;;;;;4.73;89.94;98697.66;5061579;27;103153;-72
2022/11/14 00:46:38;;;;;;;15.00;11.37;;;;;;;4.61;89.00;98697.34;5058411;27;102996;-72
2022/11/14 00:49:24;;;;;;;15.90;12.60;;;;;;;4.53;90.27;98701.25;5058113;27;103807;-72
2022/11/14 00:52:11;;;;;;;15.10;11.57;;;;;;;4.56;90.14;98693.25;5060163;27;103189;-72
2022/11/14 00:54:58;;;;;;;15.83;13.07;;;;;;;4.27;88.93;98688.53;5058484;27;103124;-72
2022/11/14 00:57:44;;;;;;;17.57;12.97;;;;;;;4.02;90.03;98687.09;5060663;27;102916;-72
2022/11/14 01:00:31;;;;;;;14.73;12.03;;;;;;;4.04;90.45;98682.63;5060488;27;103164;-72
2022/11/14 01:03:18;;;;;;;15.87;12.87;;;;;;;4.01;92.05;98677.53;5054397;27;103856;-72
2022/11/14 01:06:07;;;;;;;16.93;11.80;;;;;;;4.14;91.57;98674.34;5057460;27;103161;-72
2022/11/14 01:08:53;;;;;;;15.33;11.23;;;;;;;4.16;91.23;98683.81;5059620;27;103010;-72
2022/11/14 01:11:39;;;;;;;12.77;9.77;;;;;;;4.20;91.07;98676.69;5056965;27;102974;-72
2022/11/14 01:14:26;;;;;;;10.47;8.43;;;;;;;4.35;91.83;98683.81;5054932;27;103251;-72
2022/11/14 01:17:12;;;;;;;15.30;11.80;;;;;;;4.18;90.10;98673.31;5060444;27;103136;-72
2022/11/14 01:20:00;;;;;;;11.23;8.80;;;;;;;4.22;90.68;98677.47;5056217;27;104673;-73
2022/11/14 01:22:47;;;;;;;11.83;9.30;;;;;;;4.29;90.17;98687.56;5058485;27;102686;-72
2022/11/14 01:25:33;;;;;;;10.93;8.67;;;;;;;4.30;89.19;98678.78;5060838;27;103063;-72
2022/11/14 01:28:20;;;;;;;13.03;10.73;;;;;;;4.13;86.41;98677.91;5060100;27;103182;-72
2022/11/14 01:31:12;;;;;;;11.37;9.83;;;;;;;4.08;86.16;98665.03;5058006;27;102705;-73
2022/11/14 01:33:58;;;;;;;13.30;11.40;;;;;;;3.69;86.36;98659.03;5062157;27;104570;-72
2022/11/14 01:36:46;;;;;;;15.00;11.27;;;;;;;3.70;87.23;98658.97;5058874;27;103171;-72
2022/11/14 01:39:32;;;;;;;16.07;11.40;;;;;;;3.25;90.44;98658.41;5060914;27;103136;-72
2022/11/14 01:42:19;;;;;;;14.37;11.97;;;;;;;3.16;91.05;98661.41;5056226;27;103196;-72
2022/11/14 01:45:51;;;;;;;15.83;12.27;;;;;;;3.07;90.79;98656.56;5060585;27;102670;-73
2022/11/14 01:48:41;;;;;;;16.97;12.33;;;;;;;3.19;91.58;98666.47;5059013;27;104450;-72
2022/11/14 01:51:32;;;;;;;16.47;12.73;;;;;;;3.12;91.38;98651.97;5058306;27;103533;-73
2022/11/14 01:54:23;;;;;;;16.37;13.03;;;;;;;3.17;92.40;98650.88;5053896;27;102947;-72
2022/11/14 01:57:12;;;;;;;15.17;12.90;;;;;;;3.43;92.14;98652.34;5060229;27;102726;-72
2022/11/14 02:00:05;;;;;;;17.67;12.93;;;;;;;3.39;90.92;98641.22;5056353;27;103793;-72
2022/11/14 02:02:52;;;;;;;17.23;12.77;;;;;;;3.36;91.12;98641.34;5059298;27;103246;-72
2022/11/14 02:05:39;;;;;;;14.50;11.27;;;;;;;3.13;91.84;98640.63;5061201;27;102581;-72
2022/11/14 02:08:26;;;;;;;14.90;12.13;;;;;;;3.17;91.68;98629.16;5057989;27;103629;-72
2022/11/14 02:11:14;;;;;;;16.37;12.40;;;;;;;3.35;92.07;98629.19;5058937;27;103141;-72
2022/11/14 02:14:01;;;;;;;11.60;9.20;;;;;;;3.54;91.94;98629.22;5059620;27;103097;-72
2022/11/14 02:16:48;;;;;;;14.47;10.90;;;;;;;3.43;89.73;98631.44;5057817;27;102779;-72
2022/11/14 02:19:57;;;;;;;12.33;9.60;;;;;;;3.21;90.22;98638.53;5059603;27;103834;-72
2022/11/14 02:22:51;;;;;;;13.30;11.57;;;;;;;3.01;92.13;98638.53;5057484;27;103158;-72
2022/11/14 02:25:39;;;;;;;13.10;11.53;;;;;;;2.88;93.01;98643.47;5058151;27;103524;-72
2022/11/14 02:28:27;;;;;;;14.47;11.43;;;;;;;2.93;92.98;98642.34;5060814;27;104176;-72
2022/11/14 02:31:14;;;;;;;10.67;8.83;;;;;;;3.19;92.91;98643.84;5058665;27;102794;-72
2022/11/14 02:34:01;;;;;;;14.30;11.73;;;;;;;3.19;92.54;98643.84;5059171;27;103173;-72
2022/11/14 02:36:47;;;;;;;13.67;11.13;;;;;;;3.27;92.23;98648.72;5060204;27;103170;-71
2022/11/14 02:39:35;;;;;;;13.47;11.77;;;;;;;3.15;93.18;98649.25;5055159;27;103163;-71
2022/11/14 02:42:21;;;;;;;14.93;10.70;;;;;;;3.34;92.86;98637.09;5059591;27;104055;-71
2022/11/14 02:45:10;;;;;;;15.87;12.17;;;;;;;3.14;90.74;98631.91;5058723;27;103141;-72
2022/11/14 02:47:57;;;;;;;14.70;11.73;;;;;;;3.06;91.28;98631.41;5057033;27;103130;-71
2022/11/14 02:50:43;;;;;;;11.37;9.07;;;;;;;3.02;92.24;98635.03;5053969;27;102589;-72
2022/11/14 02:53:30;;;;;;;13.67;10.63;;;;;;;3.27;92.08;98625.22;5055663;27;102694;-72
2022/11/14 02:56:17;;;;;;;12.63;8.90;;;;;;;3.31;90.40;98635.44;5055958;27;103137;-71
2022/11/14 02:59:04;;;;;;;14.97;11.10;;;;;;;3.20;90.01;98636.88;5054749;27;103483;-72
2022/11/14 03:01:50;;;;;;;14.80;10.53;;;;;;;3.20;90.51;98640.28;5052042;27;102788;-73
2022/11/14 03:04:37;;;;;;;11.27;9.30;;;;;;;3.20;90.38;98642.91;5059266;27;102858;-73
2022/11/14 03:07:23;;;;;;;14.40;11.10;;;;;;;3.12;90.81;98644.16;5055077;27;103167;-74
2022/11/14 03:10:10;;;;;;;11.03;8.90;;;;;;;3.29;91.04;98642.50;5056958;27;103120;-73
2022/11/14 03:12:58;;;;;;;10.63;8.07;;;;;;;3.36;90.86;98630.91;5056916;27;104083;-73
2022/11/14 03:15:45;;;;;;;11.83;9.17;;;;;;;3.41;90.54;98628.94;5059409;27;103030;-73
2022/11/14 03:18:31;;;;;;;10.20;8.30;;;;;;;3.48;90.25;98627.72;5061632;27;103177;-74
2022/11/14 03:21:20;;;;;;;12.40;9.77;;;;;;;3.47;90.25;98614.75;5053531;27;103972;-74
2022/11/14 03:24:07;;;;;;;12.57;9.60;;;;;;;3.44;89.88;98602.66;5050944;27;102819;-74
2022/11/14 03:26:53;;;;;;;12.47;9.77;;;;;;;3.32;90.22;98607.59;5058242;27;103327;-74
2022/11/14 03:29:41;;;;;;;14.50;10.50;;;;;;;3.30;91.09;98599.81;5061087;27;103143;-74
2022/11/14 03:32:27;;;;;;;11.80;8.77;;;;;;;3.37;90.64;98596.00;5052184;27;103153;-74
2022/11/14 03:35:14;;;;;;;15.07;11.80;;;;;;;3.15;90.66;98589.19;5057737;27;102708;-74
2022/11/14 03:38:00;;;;;;;14.10;10.23;;;;;;;2.94;92.96;98591.00;5058579;27;103994;-73
2022/11/14 03:40:47;;;;;;;13.67;11.13;;;;;;;3.24;93.11;98583.56;5054152;27;105938;-73
2022/11/14 03:43:34;;;;;;;10.83;8.60;;;;;;;3.37;92.37;98574.25;5057826;27;103148;-72
2022/11/14 03:46:22;;;;;;;13.40;9.50;;;;;;;3.46;91.95;98560.78;5059352;27;102882;-74
2022/11/14 03:49:08;;;;;;;12.50;10.17;;;;;;;3.31;90.54;98557.09;5058201;27;102739;-73
2022/11/14 03:51:54;;;;;;;12.80;9.90;;;;;;;3.20;91.37;98555.94;5050396;27;104432;-73
2022/11/14 03:54:41;;;;;;;10.93;8.83;;;;;;;3.12;93.29;98571.91;5054102;27;103323;-73
2022/11/14 03:57:28;;;;;;;12.90;10.03;;;;;;;3.34;92.86;98582.28;5054663;27;102764;-74
2022/11/14 04:00:15;;;;;;;13.63;10.77;;;;;;;3.31;91.07;98593.66;5056946;27;103140;-75
2022/11/14 04:03:03;;;;;;;12.13;9.00;;;;;;;3.21;90.42;98615.03;5057722;27;104185;-74
2022/11/14 04:05:50;;;;;;;13.30;10.27;;;;;;;3.08;89.81;98619.13;5057011;27;104248;-73
2022/11/14 04:08:36;;;;;;;11.70;9.80;;;;;;;3.15;92.59;98617.91;5054049;27;102811;-74
2022/11/14 04:11:22;;;;;;;14.20;11.20;;;;;;;3.25;92.14;98616.63;5053882;27;103121;-74
2022/11/14 04:14:09;;;;;;;15.07;10.80;;;;;;;3.43;92.20;98610.56;5057540;27;103219;-73
2022/11/14 04:16:55;;;;;;;12.80;9.70;;;;;;;3.54;91.09;98607.47;5055699;27;103193;-73
2022/11/14 04:19:43;;;;;;;11.27;9.60;;;;;;;3.61;91.37;98608.88;5055373;27;102987;-73
2022/11/14 04:22:30;;;;;;;16.20;11.60;;;;;;;3.65;91.35;98611.28;5060552;27;104462;-73
2022/11/14 04:25:16;;;;;;;13.53;10.20;;;;;;;3.73;91.50;98611.78;5053965;27;103250;-73
2022/11/14 04:28:03;;;;;;;14.60;11.87;;;;;;;3.70;91.08;98603.25;5054898;27;103017;-74
2022/11/14 04:30:49;;;;;;;12.57;9.23;;;;;;;3.67;91.37;98593.78;5055441;27;102607;-75
2022/11/14 04:33:36;;;;;;;11.17;9.27;;;;;;;3.76;91.73;98590.72;5057184;27;102718;-74
2022/11/14 04:36:23;;;;;;;19.07;12.73;;;;;;;3.66;92.31;98586.84;5053158;27;103200;-74
2022/11/14 04:39:13;;;;;;;18.07;12.37;;;;;;;3.53;93.34;98580.50;5056043;27;102660;-74
2022/11/14 04:42:00;;;;;;;17.70;11.87;;;;;;;3.63;93.41;98573.94;5055617;27;102707;-71
2022/11/14 04:44:46;;;;;;;11.47;9.20;;;;;;;3.73;93.55;98566.53;5056954;27;102591;-71
2022/11/14 04:47:33;;;;;;;12.77;10.87;;;;;;;3.82;92.88;98556.47;5056710;27;103161;-71
2022/11/14 04:50:19;;;;;;;13.47;10.40;;;;;;;3.81;92.66;98553.94;5057586;27;103102;-71
2022/11/14 04:53:07;;;;;;;14.23;11.27;;;;;;;3.84;92.96;98565.09;5055416;27;102742;-72
2022/11/14 04:55:54;;;;;;;17.30;12.90;;;;;;;3.67;93.62;98578.09;5054799;27;102642;-72
2022/11/14 04:58:40;;;;;;;15.17;11.80;;;;;;;3.63;92.79;98571.31;5055383;27;103697;-72
2022/11/14 05:01:26;;;;;;;14.63;11.10;;;;;;;3.71;93.28;98563.97;5053915;27;103177;-73
2022/11/14 05:04:13;;;;;;;13.10;11.10;;;;;;;3.58;92.81;98562.84;5056460;27;103405;-72
2022/11/14 05:07:00;;;;;;;15.73;11.60;;;;;;;3.63;93.65;98539.97;5056529;27;102883;-72
2022/11/14 05:09:47;;;;;;;11.37;9.60;;;;;;;3.77;92.75;98542.78;5055724;27;104552;-72
2022/11/14 05:12:34;;;;;;;12.77;11.07;;;;;;;3.84;92.61;98549.41;5060258;27;103181;-71
2022/11/14 05:15:20;;;;;;;11.83;10.57;;;;;;;3.89;92.77;98552.66;5053528;27;102629;-71
2022/11/14 05:18:07;;;;;;;13.10;10.33;;;;;;;3.93;92.26;98533.28;5053070;27;103820;-71
2022/11/14 05:20:53;;;;;;;11.33;8.73;;;;;;;3.90;90.95;98533.41;5055389;27;103172;-71
2022/11/14 05:23:40;;;;;;;11.90;9.07;;;;;;;3.84;90.19;98533.75;5056537;27;103140;-71
2022/11/14 05:26:28;;;;;;;10.43;8.60;;;;;;;3.91;90.79;98534.28;5057663;27;102901;-71
2022/11/14 05:29:14;;;;;;;11.23;9.50;;;;;;;3.84;90.60;98531.13;5057948;27;103753;-71
2022/11/14 05:32:01;;;;;;;12.63;9.97;;;;;;;3.73;91.35;98537.78;5054465;27;103622;-71
2022/11/14 05:34:47;;;;;;;10.13;9.00;;;;;;;3.69;91.92;98533.59;5059417;27;103140;-71
2022/11/14 05:37:34;;;;;;;12.87;9.77;;;;;;;3.77;91.81;98531.47;5054434;27;102706;-71
2022/11/14 05:40:21;;;;;;;8.70;7.80;;;;;;;3.74;91.96;98537.69;5058948;27;103124;-72
2022/11/14 05:43:08;;;;;;;10.80;9.63;;;;;;;3.69;92.37;98534.47;5055925;27;103156;-71
2022/11/14 05:45:59;;;;;;;11.50;9.67;;;;;;;3.54;91.06;98522.09;5056860;27;103145;-68
2022/11/14 05:48:45;;;;;;;11.50;9.87;;;;;;;3.48;91.32;98525.84;5057654;27;103020;-70
2022/11/14 05:51:32;;;;;;;12.40;10.40;;;;;;;3.29;93.42;98524.16;5057638;27;103016;-70
2022/11/14 05:54:18;;;;;;;9.77;8.20;;;;;;;3.41;92.85;98531.44;5056158;27;103150;-70
2022/11/14 05:57:05;;;;;;;12.90;10.33;;;;;;;3.44;93.02;98528.69;5057287;27;103256;-69
2022/11/14 05:59:53;;;;;;;11.60;8.80;;;;;;;3.52;93.86;98526.56;5059064;27;103095;-70
2022/11/14 06:02:39;;;;;;;10.63;8.67;;;;;;;3.65;93.11;98532.91;5056602;27;102751;-70
2022/11/14 06:05:26;;;;;;;10.63;7.87;;;;;;;3.68;93.12;98537.97;5060121;27;103006;-69
2022/11/14 06:08:12;;;;;;;11.33;8.83;;;;;;;3.77;93.50;98542.78;5058841;27;103133;-69
2022/11/14 06:11:02;;;;;;;9.53;7.93;;;;;;;3.77;91.85;98545.38;5058400;27;102975;-69
2022/11/14 06:13:48;;;;;;;14.97;11.33;;;;;;;3.62;93.36;98548.72;5055633;27;102595;-69
2022/11/14 06:16:36;;;;;;;13.20;10.77;;;;;;;3.73;93.97;98551.69;5049800;27;104369;-70
2022/11/14 06:19:23;;;;;;;10.90;9.13;;;;;;;3.83;93.40;98546.88;5055680;27;103125;-70
2022/11/14 06:22:09;;;;;;;13.23;10.40;;;;;;;3.82;93.91;98543.41;5055147;27;103003;-70
2022/11/14 06:24:56;;;;;;;11.60;9.60;;;;;;;4.01;92.36;98536.38;5054543;27;102908;-70
2022/11/14 06:27:42;;;;;;;12.57;9.53;;;;;;;3.93;93.09;98543.72;5054013;27;104444;-72
2022/11/14 06:30:28;;;;;;;10.90;9.37;;;;;;;4.07;92.62;98543.91;5056848;27;103098;-74
2022/11/14 06:33:16;;;;;;;8.87;7.33;;;;;;;4.24;92.73;98545.69;5053699;27;104491;-74
2022/11/14 06:36:05;;;;;;;13.07;9.77;;;;;;;4.28;91.98;98539.41;5058024;27;102702;-70
2022/11/14 06:38:51;;;;;;;10.20;8.60;;;;;;;4.30;92.34;98540.19;5057962;27;103716;-69
2022/11/14 06:41:38;;;;;;;15.83;9.17;;;;;;;4.37;92.34;98543.34;5055261;27;103158;-69
2022/11/14 06:44:24;;;;;;;15.33;11.00;;;;;;;4.25;92.13;98538.72;5058457;27;102610;-69
2022/11/14 06:47:16;;;;;;;11.17;9.50;;;;;;;4.38;93.22;98539.81;5058661;27;104137;-69
2022/11/14 06:50:04;;;;;;;14.97;9.63;;;;;;;4.45;93.78;98556.88;5057362;27;104014;-70
2022/11/14 06:52:51;;;;;;;11.27;9.10;;;;;;;4.47;94.11;98544.56;5054297;27;103160;-69
2022/11/14 06:55:37;;;;;;;12.77;9.13;;;;;;;4.63;93.57;98535.84;5055652;27;102641;-69
2022/11/14 06:58:26;;;;;;;11.63;9.63;;;;;;;4.66;93.71;98540.09;5055624;27;103598;-69
2022/11/14 07:01:14;;;;;;;11.53;9.57;;;;;;;4.75;94.26;98538.78;5053565;27;103564;-69
2022/11/14 07:04:01;;;;;;;12.67;8.77;;;;;;;4.82;94.51;98538.41;5056164;27;103168;-69
2022/11/14 07:06:49;;;;;;;13.27;11.23;;;;;;;4.68;94.37;98533.03;5057771;27;102598;-69
2022/11/14 07:09:35;;;;;;;13.83;10.30;;;;;;;4.58;93.63;98535.25;5057538;27;103778;-70
2022/11/14 07:12:22;;;;;;;11.43;8.80;;;;;;;4.75;94.05;98533.53;5056712;27;103137;-70
2022/11/14 07:15:09;;;;;;;9.73;8.30;;;;;;;4.83;92.98;98540.06;5057859;27;103124;-69
2022/11/14 07:17:55;;;;;;;10.00;8.47;;;;;;;4.94;93.14;98532.50;5057623;27;102832;-69
2022/11/14 07:20:42;;;;;;;11.33;7.53;;;;;;;5.06;93.23;98534.50;5059170;27;102621;-69
2022/11/14 07:23:30;;;;;;;11.07;9.37;;;;;;;5.09;92.32;98533.47;5056402;27;103203;-69
2022/11/14 07:26:17;;;;;;;9.10;7.27;;;;;;;5.17;92.55;98532.16;5056139;27;103133;-70
2022/11/14 07:29:03;;;;;;;12.30;10.03;;;;;;;5.06;93.22;98544.97;5056667;27;102850;-69
2022/11/14 07:31:50;;;;;;;9.93;7.70;;;;;;;5.23;92.90;98539.69;5057510;27;102594;-70
2022/11/14 07:34:36;;;;;;;9.27;7.57;;;;;;;5.28;92.76;98537.66;5056572;27;103123;-69
2022/11/14 07:37:23;;;;;;;10.07;8.03;;;;;;;5.38;92.35;98537.19;5054642;27;103105;-69
2022/11/14 07:40:12;;;;;;;12.33;9.57;;;;;;;5.33;91.56;98536.59;5055268;27;104089;-69
2022/11/14 07:42:59;;;;;;;12.00;8.27;;;;;;;5.36;91.53;98539.84;5057099;27;103665;-69
2022/11/14 07:45:46;;;;;;;12.53;9.07;;;;;;;5.36;91.43;98537.25;5055655;27;104138;-70
2022/11/14 07:48:34;;;;;;;12.53;10.37;;;;;;;5.31;91.58;98538.41;5053859;27;103172;-70
2022/11/14 07:51:21;;;;;;;14.17;10.10;;;;;;;5.21;92.03;98554.66;5056604;27;102566;-69
2022/11/14 07:54:07;;;;;;;11.53;9.37;;;;;;;5.13;94.20;98564.69;5054073;27;104375;-69
2022/11/14 07:56:54;;;;;;;15.10;10.77;;;;;;;5.01;94.72;98567.94;5054074;27;103715;-69
2022/11/14 07:59:41;;;;;;;14.57;9.70;;;;;;;5.17;95.47;98566.19;5056228;27;103247;-72
2022/11/14 08:02:27;;;;;;;13.83;10.63;;;;;;;5.19;95.91;98576.63;5054099;27;102622;-72
2022/11/14 08:05:14;;;;;;;14.60;10.07;;;;;;;5.32;95.38;98576.78;5055189;27;103940;-71
2022/11/14 08:08:01;;;;;;;17.23;12.07;;;;;;;5.42;94.58;98580.63;5059951;27;104124;-72
2022/11/14 08:10:47;;;;;;;11.00;9.13;;;;;;;5.48;94.84;98582.91;5053541;27;103171;-69
2022/11/14 08:13:35;;;;;;;12.97;9.33;;;;;;;5.58;94.17;98581.50;5056446;27;102905;-69
2022/11/14 08:16:21;;;;;;;14.70;11.47;;;;;;;5.58;93.59;98578.88;5056822;27;104322;-69
2022/11/14 08:19:08;;;;;;;13.30;9.47;;;;;;;5.78;93.62;98591.75;5051929;27;103205;-69
2022/11/14 08:21:54;;;;;;;11.20;9.93;;;;;;;5.87;92.99;98596.50;5056261;27;103155;-69
2022/11/14 08:24:41;;;;;;;15.40;11.50;;;;;;;5.70;92.98;98594.78;5056441;27;102701;-69
2022/11/14 08:27:27;;;;;;;13.77;9.87;;;;;;;5.60;93.61;98590.13;5053016;27;103876;-69
2022/11/14 08:30:16;;;;;;;10.17;8.80;;;;;;;5.79;92.92;98598.66;5056118;27;104089;-69
2022/11/14 08:33:04;;;;;;;14.83;11.07;;;;;;;5.76;93.61;98609.31;5055205;27;102966;-69
2022/11/14 08:35:50;;;;;;;13.17;9.60;;;;;;;5.87;93.82;98603.56;5052431;27;103215;-69
2022/11/14 08:38:37;;;;;;;13.40;10.37;;;;;;;5.84;94.35;98601.88;5056197;27;104271;-70
2022/11/14 08:41:23;;;;;;;14.50;9.03;;;;;;;5.87;96.34;98600.94;5055296;27;103172;-71
2022/11/14 08:44:10;;;;;;;10.23;8.00;;;;;;;5.94;99.19;98591.78;5055398;27;107204;-71
2022/11/14 08:46:59;;;;;;;7.93;6.33;;;;;;;6.19;100.00;98592.97;5053311;27;102985;-71
2022/11/14 08:49:45;;;;;;;7.00;5.43;;;;;;;6.53;100.00;98591.88;5054206;27;104051;-71
2022/11/14 08:52:32;;;;;;;5.50;4.63;;;;;;;7.07;100.00;98587.81;5051798;27;103992;-71
2022/11/14 08:55:18;;;;;;;5.73;4.40;;;;;;;7.31;100.00;98586.31;5054792;27;103167;-71
2022/11/14 08:58:04;;;;;;;3.90;3.37;;;;;;;7.47;100.00;98587.06;5057688;27;102666;-71
2022/11/14 09:00:51;;;;;;;5.10;3.80;;;;;;;7.78;100.00;98590.41;5051041;27;103945;-71
2022/11/14 09:03:39;;;;;;;4.17;3.17;;;;;;;7.90;100.00;98592.28;5059289;27;104000;-71
2022/11/14 09:06:26;;;;;;;3.53;2.53;;;;;;;8.20;100.00;98586.88;5062949;27;103123;-71
2022/11/14 09:09:12;;;;;;;4.53;2.53;;;;;;;8.33;100.00;98588.63;5059385;27;103488;-71
2022/11/14 09:11:59;;;;;;;5.30;2.50;;;;;;;8.44;100.00;98586.16;5058671;27;102802;-71
2022/11/14 09:14:45;;;;;;;6.50;2.63;;;;;;;8.50;100.00;98591.03;5060063;27;103217;-72
2022/11/14 09:17:32;;;;;;;3.70;2.50;;;;;;;8.50;100.00;98590.16;5059515;27;103121;-71
2022/11/14 09:20:20;;;;;;;5.07;2.50;;;;;;;8.56;100.00;98589.78;5059368;27;102668;-71
2022/11/14 09:23:06;;;;;;;4.10;2.40;;;;;;;8.65;100.00;98586.50;5058865;27;103660;-72
2022/11/14 09:25:53;;;;;;;2.17;1.97;;;;;;;8.64;100.00;98577.78;5057148;27;104013;-71
2022/11/14 09:28:40;;;;;;;2.97;2.30;;;;;;;8.79;100.00;98575.91;5055603;27;102987;-71
2022/11/14 09:31:26;;;;;;;4.33;3.03;;;;;;;8.71;100.00;98581.69;5054967;27;102665;-72
2022/11/14 09:34:12;;;;;;;9.27;5.37;;;;;;;8.43;100.00;98573.91;5053354;27;103052;-71
2022/11/14 09:37:00;;;;;;;10.70;7.13;;;;;;;8.15;100.00;98579.25;5054381;27;103235;-71
2022/11/14 09:39:46;;;;;;;11.43;8.23;;;;;;;8.01;100.00;98581.91;5059153;27;103153;-72
2022/11/14 09:42:58;;;;;;;9.77;7.37;;;;;;;8.00;100.00;98575.00;5057329;27;103949;-72
2022/11/14 09:45:50;;;;;;;8.50;6.80;;;;;;;8.03;100.00;98578.25;5058419;27;102668;-72
2022/11/14 09:48:37;;;;;;;7.87;6.30;;;;;;;8.00;100.00;98575.00;5057310;27;103178;-71
2022/11/14 09:51:25;;;;;;;7.00;5.90;;;;;;;8.08;100.00;98568.25;5058436;27;103184;-71
2022/11/14 09:54:19;;;;;;;8.10;6.53;;;;;;;8.15;100.00;98563.47;5057161;27;102672;-71
2022/11/14 09:57:15;;;;;;;7.60;5.83;;;;;;;8.15;100.00;98560.81;5058228;27;103748;-71
2022/11/14 10:00:02;;;;;;;7.30;5.43;;;;;;;8.26;100.00;98557.50;5056144;27;103151;-70
2022/11/14 10:03:07;;;;;;;8.03;6.50;;;;;;;8.27;100.00;98557.44;5057668;27;103114;-71
2022/11/14 10:06:11;;;;;;;9.27;6.40;;;;;;;8.28;100.00;98548.59;5058101;27;102710;-70
2022/11/14 10:09:21;;;;;;;7.30;6.13;;;;;;;8.42;100.00;98545.88;5056522;27;102569;-70
2022/11/14 10:12:23;;;;;;;7.10;5.87;;;;;;;8.45;100.00;98547.50;5055173;27;103033;-69
2022/11/14 10:15:18;;;;;;;6.80;6.10;;;;;;;8.58;100.00;98545.75;5057437;27;103269;-69
2022/11/14 10:18:24;;;;;;;10.20;6.27;;;;;;;8.71;100.00;98542.19;5055618;27;103059;-69
2022/11/14 10:21:28;;;;;;;10.43;7.17;;;;;;;8.84;100.00;98531.69;5059726;27;103032;-70
2022/11/14 10:24:31;;;;;;;8.60;6.20;;;;;;;9.11;100.00;98534.19;5048813;27;103240;-70
2022/11/14 10:27:19;;;;;;;8.53;6.70;;;;;;;9.38;100.00;98527.00;5051643;27;103143;-70
2022/11/14 10:30:12;;;;;;;7.23;5.87;;;;;;;9.55;100.00;98529.28;5058116;27;102851;-70
2022/11/14 10:33:20;;;;;;;9.23;6.37;;;;;;;9.94;100.00;98524.78;5058304;27;103647;-70
2022/11/14 10:36:17;;;;;;;9.37;6.40;;;;;;;10.11;100.00;98533.13;5057384;27;103230;-70
2022/11/14 10:39:11;;;;;;;7.43;5.63;;;;;;;10.07;100.00;98536.13;5057007;27;103240;-70
2022/11/14 10:42:03;;;;;;;7.50;5.93;;;;;;;10.04;100.00;98534.56;5057305;27;103053;-70
2022/11/14 10:45:02;;;;;;;6.83;5.57;;;;;;;10.02;100.00;98533.00;5057543;27;102696;-70
2022/11/14 10:47:53;;;;;;;6.70;4.77;;;;;;;9.84;100.00;98529.88;5060051;27;103292;-70
2022/11/14 10:50:46;;;;;;;6.77;4.90;;;;;;;9.86;100.00;98544.63;5054996;27;103105;-70
2022/11/14 10:53:47;;;;;;;5.90;5.03;;;;;;;9.88;100.00;98536.59;5057583;27;102543;-70
2022/11/14 10:56:33;;;;;;;6.60;5.30;;;;;;;9.97;100.00;98540.38;5057089;27;102721;-70
2022/11/14 10:59:22;;;;;;;7.23;5.20;;;;;;;10.09;99.84;98535.06;5059152;27;103732;-70
2022/11/14 11:02:08;;;;;;;6.37;4.83;;;;;;;10.17;98.94;98538.00;5058440;27;103155;-70
2022/11/14 11:05:11;;;;;;;5.03;4.53;;;;;;;10.12;99.17;98534.00;5056654;27;102774;-70
2022/11/14 11:11:29;;;;;;;6.90;4.90;;;;;;;10.44;97.60;98521.94;5060101;27;102588;-70
2022/11/14 11:14:18;;;;;;;6.90;5.03;;;;;;;11.00;96.20;98513.19;5055807;27;102657;-70
2022/11/14 11:17:23;;;;;;;4.60;4.10;;;;;;;11.46;93.34;98515.75;5055896;27;102668;-70
2022/11/14 11:20:29;;;;;;;4.27;3.40;;;;;;;11.38;92.67;98506.72;5057120;27;102626;-70
2022/11/14 11:23:21;;;;;;;4.10;3.70;;;;;;;11.64;92.67;98502.88;5053154;27;104859;-71
2022/11/14 11:26:16;;;;;;;5.17;3.83;;;;;;;11.58;92.18;98492.78;5059164;27;103138;-71
2022/11/14 11:29:14;;;;;;;3.67;3.27;;;;;;;11.45;92.60;98506.13;5058488;27;102874;-70
2022/11/14 11:32:01;;;;;;;4.40;3.20;;;;;;;11.75;93.39;98494.09;5061042;27;103808;-70
2022/11/14 11:34:51;;;;;;;4.17;3.37;;;;;;;12.60;88.74;98498.53;5056596;27;103199;-70
2022/11/14 11:37:44;;;;;;;3.47;3.17;;;;;;;11.89;91.48;98497.34;5055183;27;103246;-70
2022/11/14 11:40:30;;;;;;;4.03;2.90;;;;;;;11.86;91.11;98494.94;5056731;27;103224;-69
2022/11/14 11:43:25;;;;;;;2.90;2.60;;;;;;;11.80;91.09;98498.06;5056184;27;103667;-70
2022/11/14 11:46:39;;;;;;;3.47;2.90;;;;;;;11.60;91.83;98496.13;5055480;27;104086;-70
2022/11/14 11:49:36;;;;;;;3.37;2.77;;;;;;;11.71;91.56;98498.81;5055787;27;103196;-70
2022/11/14 11:52:32;;;;;;;2.57;2.37;;;;;;;11.58;91.48;98495.44;5052677;27;104248;-70
2022/11/14 11:55:24;;;;;;;5.03;2.90;;;;;;;11.52;92.42;98488.81;5054665;27;102628;-70
2022/11/14 11:58:18;;;;;;;5.13;3.10;;;;;;;11.36;93.48;98485.72;5057011;27;104038;-69
2022/11/14 12:01:04;;;;;;;3.10;2.80;;;;;;;11.70;92.26;98489.19;5057074;27;102974;-70
2022/11/14 12:03:52;;;;;;;3.93;2.87;;;;;;;11.54;92.03;98486.88;5057841;27;102676;-70
2022/11/14 12:06:46;;;;;;;2.53;2.33;;;;;;;11.60;91.83;98480.25;5053436;27;102731;-70
2022/11/14 12:09:39;;;;;;;4.20;2.40;;;;;;;11.59;91.56;98479.41;5058565;27;104081;-70
2022/11/14 12:13:12;;;;;;;2.40;2.20;;;;;;;11.63;91.07;98480.03;5053933;27;103004;-70
2022/11/14 12:16:11;;;;;;;3.70;1.83;;;;;;;11.64;90.54;98487.00;5056761;27;102618;-70
2022/11/14 12:19:29;;;;;;;2.27;1.70;;;;;;;11.80;88.96;98484.84;5053911;27;102711;-70
2022/11/14 12:22:54;;;;;;;2.17;1.70;;;;;;;11.86;88.34;98484.34;5054193;27;103378;-70
2022/11/14 12:26:02;;;;;;;1.50;1.13;;;;;;;11.95;87.59;98480.13;5014585;27;103272;-70
2022/11/14 12:29:11;;;;;;;1.40;1.30;;;;;;;12.10;88.40;98485.00;5054522;27;104110;-70
2022/11/14 12:32:05;;;;;;;2.30;1.30;;;;;;;12.16;87.57;98481.84;5055995;27;104045;-70
2022/11/14 12:34:52;;;;;;;2.33;1.43;;;;;;;12.26;87.40;98478.44;5055693;27;103216;-70
2022/11/14 12:37:45;;;;;;;1.60;1.47;;;;;;;12.29;87.58;98472.91;5054879;27;103108;-70
2022/11/14 12:40:40;;;;;;;3.10;1.30;;;;;;;12.80;85.96;98471.16;5055882;27;102610;-70
2022/11/14 12:43:34;;;;;;;2.87;1.50;;;;;;;13.36;83.61;98472.47;5052190;27;102850;-70
2022/11/14 12:46:22;;;;;;;3.53;1.40;;;;;;;13.66;82.09;98462.81;5054257;27;103218;-70
2022/11/14 12:49:37;;;;;;;1.40;1.30;;;;;;;13.29;83.85;98467.84;5055232;27;103154;-69
2022/11/14 12:52:43;;;;;;;2.20;1.60;;;;;;;13.17;81.76;98464.44;5055347;27;102575;-70
2022/11/14 12:55:55;;;;;;;1.37;1.10;;;;;;;13.46;81.18;98469.03;5054334;27;103810;-70
2022/11/14 12:59:10;;;;;;;2.63;1.40;;;;;;;13.79;79.95;98463.38;5031272;27;103171;-70
2022/11/14 13:02:16;;;;;;;2.10;1.60;;;;;;;13.90;78.44;98465.91;5054049;27;103122;-70
2022/11/14 13:05:36;;;;;;;1.70;1.60;;;;;;;14.30;76.83;98464.00;5041685;27;104299;-71
2022/11/14 13:08:48;;;;;;;1.20;1.00;;;;;;;14.45;77.72;98464.47;5046624;27;103866;-71
2022/11/14 13:25:21;;;;;;;2.10;1.77;;;;;;;13.82;77.95;98458.66;5046045;27;103992;-71